San Juan Capistrano, California
Current Conditions -  °F | °C
As of 4:53 AM on Thursday 30 Oct 2014 (Local Time) from KSNA Reporting Station
Clear Clear  
Wind Chill: 64°   Ceiling: Unl
Heat Index: 64°   Visibility: 10mi
Dew Point: 58°   Wind: 5mph
Humidity: 80%   Direction: 40°NE
Pressure: 29.97"   Gusts: NA
Location:  33.5°N, 117.66°W
Report Text: KSNA 301153Z AUTO 04004KT 10SM CLR 18/14 A2997 RMK AO2 SLP146 T01780144 10206 20172 56007 TSNO
Loading
Personal Weather Stations






























Interactive Weather Map New forecast layout! Learn more

10-Day Weather Forecast

Advertisements
Track Severe Weather on mobile